Station Historical Data
Daily Summary for June 11, 2017 Units:  Metric    English   Both
« Previous Day
Next Day »
Daily Weekly Monthly Yearly Custom
  High: Low: Average:
Temperature: 29.6 °C 18.7 °C 24.3 °C
Dew Point: 21.7 °C 16 °C 19.1 °C
Humidity: 90% 58% 73%
Wind Speed: 1.6km/h 0km/h 0km/h
Wind Gust: 8km/h - -
Wind- - NW
Pressure: 1022.9 hPa 1019.2 hPa -
Precipitation: 0 mm    
Historical Graphs
 
 
Tabular Data for June 11, 2017
Time Temperature Dew Point Pressure Wind Wind Speed Wind Gust Humidity Rainfall Rate (Hourly) solar Conditions
00:00 20.9 °C 16.6 °C 1020.5 hPa Calm     76% 0 mm WeatherDisplay:10.37 W/m2 CLR
00:10 20.8 °C 16.2 °C 1020.5 hPa Calm     75% 0 mm WeatherDisplay:10.37 W/m2 CLR
00:20 20.7 °C 16.5 °C 1020.9 hPa Calm     77% 0 mm WeatherDisplay:10.37 W/m2 CLR
00:30 20.5 °C 16.6 °C 1020.5 hPa Calm     78% 0 mm WeatherDisplay:10.37 W/m2 CLR
00:40 20.3 °C 16.6 °C 1020.5 hPa Calm     79% 0 mm WeatherDisplay:10.37 W/m2 CLR
00:50 20.2 °C 16.6 °C 1020.5 hPa Calm     80% 0 mm WeatherDisplay:10.37 W/m2 CLR
01:00 20 °C 16.4 °C 1020.5 hPa Calm     80% 0 mm WeatherDisplay:10.37 W/m2 CLR
01:10 19.9 °C 16.6 °C 1020.5 hPa Calm     81% 0 mm WeatherDisplay:10.37 W/m2 CLR
01:20 19.8 °C 16.4 °C 1020.5 hPa Calm     81% 0 mm WeatherDisplay:10.37 W/m2 CLR
01:30 19.7 °C 16.5 °C 1020.5 hPa Calm     82% 0 mm WeatherDisplay:10.37 W/m2 CLR
01:40 19.6 °C 16.6 °C 1020.5 hPa Calm     83% 0 mm WeatherDisplay:10.37 W/m2 CLR
01:50 19.4 °C 16.4 °C 1020.5 hPa Calm     83% 0 mm WeatherDisplay:10.37 W/m2 CLR
02:00 19.3 °C 16.3 °C 1020.2 hPa Calm     83% 0 mm WeatherDisplay:10.37 W/m2 CLR
02:10 19.2 °C 16.3 °C 1020.2 hPa Calm     83% 0 mm WeatherDisplay:10.37 W/m2 CLR
02:20 19.1 °C 16.3 °C 1020.2 hPa Calm     84% 0 mm WeatherDisplay:10.37 W/m2 CLR
02:30 19.1 °C 16.3 °C 1020.2 hPa Calm     84% 0 mm WeatherDisplay:10.37 W/m2 CLR
02:40 18.9 °C 16.1 °C 1020.2 hPa Calm     84% 0 mm WeatherDisplay:10.37 W/m2 CLR
02:50 18.8 °C 16.1 °C 1020.2 hPa Calm     84% 0 mm WeatherDisplay:10.37 W/m2 CLR
03:10 18.7 °C 16 °C 1020.2 hPa Calm     84% 0 mm WeatherDisplay:10.37 W/m2 CLR
03:20 19 °C 16.2 °C 1019.9 hPa Calm     84% 0 mm WeatherDisplay:10.37 W/m2 CLR
03:30 19 °C 16.1 °C 1020.2 hPa Calm     83% 0 mm WeatherDisplay:10.37 W/m2 CLR
03:40 19.4 °C 16.5 °C 1020.2 hPa Calm     83% 0 mm WeatherDisplay:10.37 W/m2 CLR
03:50 19.4 °C 16.5 °C 1020.2 hPa Calm     83% 0 mm WeatherDisplay:10.37 W/m2 CLR
04:00 19.4 °C 16.5 °C 1020.2 hPa Calm     83% 0 mm WeatherDisplay:10.37 W/m2 CLR
04:10 19.4 °C 16.5 °C 1019.9 hPa Calm     83% 0 mm WeatherDisplay:10.37 W/m2 CLR
04:20 19.4 °C 16.5 °C 1019.9 hPa Calm     83% 0 mm WeatherDisplay:10.37 W/m2 CLR
04:30 19.4 °C 16.5 °C 1019.9 hPa Calm     83% 0 mm WeatherDisplay:10.37 W/m2 CLR
04:40 19.4 °C 16.5 °C 1019.9 hPa Calm     83% 0 mm WeatherDisplay:10.37 W/m2 CLR
04:50 19.4 °C 16.5 °C 1019.9 hPa Calm     83% 0 mm WeatherDisplay:10.37 W/m2 CLR
05:00 19.4 °C 16.5 °C 1019.9 hPa Calm     83% 0 mm WeatherDisplay:10.37 W/m2 CLR
05:10 19.4 °C 16.5 °C 1020.2 hPa Calm     83% 0 mm WeatherDisplay:10.37 W/m2 CLR
05:20 19.4 °C 16.5 °C 1020.2 hPa Calm     83% 0 mm WeatherDisplay:10.37 W/m2 CLR
05:30 19.4 °C 16.5 °C 1020.2 hPa Calm     83% 0 mm WeatherDisplay:10.37 W/m2 CLR
05:40 19.4 °C 16.5 °C 1020.2 hPa Calm     83% 0 mm WeatherDisplay:10.37 W/m2 CLR
05:50 19.4 °C 16.5 °C 1020.2 hPa Calm     83% 0 mm WeatherDisplay:10.37 W/m2 CLR
06:00 19.4 °C 16.5 °C 1020.5 hPa Calm     83% 0 mm WeatherDisplay:10.37 W/m2 CLR
06:10 19.4 °C 16.5 °C 1020.5 hPa Calm     83% 0 mm WeatherDisplay:10.37 W/m2 CLR
06:20 19.4 °C 16.5 °C 1020.5 hPa Calm     83% 0 mm WeatherDisplay:10.37 W/m2 CLR
06:30 19.4 °C 16.5 °C 1020.9 hPa Calm     83% 0 mm WeatherDisplay:10.37 W/m2 CLR
06:40 19.4 °C 16.5 °C 1020.9 hPa Calm     83% 0 mm WeatherDisplay:10.37 W/m2 CLR
06:50 19.4 °C 16.5 °C 1021.2 hPa Calm     83% 0 mm WeatherDisplay:10.37 W/m2 CLR
07:00 19.4 °C 16.5 °C 1021.2 hPa Calm     83% 0 mm WeatherDisplay:10.37 W/m2 CLR
07:10 19.4 °C 16.5 °C 1021.2 hPa Calm     83% 0 mm WeatherDisplay:10.37 W/m2 CLR
07:20 19.4 °C 16.5 °C 1021.2 hPa Calm     83% 0 mm WeatherDisplay:10.37 W/m2 CLR
07:30 19.4 °C 16.5 °C 1021.6 hPa Calm     83% 0 mm WeatherDisplay:10.37 W/m2 CLR
07:40 19.4 °C 16.5 °C 1021.6 hPa Calm     83% 0 mm WeatherDisplay:10.37 W/m2 CLR
07:50 19.3 °C 17.4 °C 1021.9 hPa Calm     89% 0 mm WeatherDisplay:10.37 W/m2 CLR
08:00 19.7 °C 18.1 °C 1021.9 hPa Calm     90% 0 mm WeatherDisplay:10.37 W/m2 CLR
08:10 20.2 °C 18.6 °C 1021.9 hPa Calm     90% 0 mm WeatherDisplay:10.37 W/m2 CLR
08:20 20.7 °C 18.8 °C 1021.9 hPa Calm     89% 0 mm WeatherDisplay:10.37 W/m2 CLR
08:30 21.1 °C 19 °C 1022.2 hPa Calm   1.6 km/h 88% 0 mm WeatherDisplay:10.37 W/m2 CLR
08:40 21.4 °C 19.3 °C 1022.2 hPa Calm   1.6 km/h 88% 0 mm WeatherDisplay:10.37 W/m2 CLR
08:50 21.6 °C 19.3 °C 1022.2 hPa Calm     87% 0 mm WeatherDisplay:10.37 W/m2 CLR
09:00 21.8 °C 19.5 °C 1022.6 hPa Calm   1.6 km/h 87% 0 mm WeatherDisplay:10.37 W/m2 CLR
09:10 22.1 °C 19.6 °C 1022.6 hPa Calm   3.2 km/h 86% 0 mm WeatherDisplay:10.37 W/m2 CLR
09:20 22.4 °C 19.9 °C 1022.6 hPa Calm   3.2 km/h 86% 0 mm WeatherDisplay:10.37 W/m2 CLR
09:30 22.9 °C 20.2 °C 1022.6 hPa Calm   1.6 km/h 85% 0 mm WeatherDisplay:10.37 W/m2 CLR
09:40 23.3 °C 20.5 °C 1022.9 hPa Calm   1.6 km/h 84% 0 mm WeatherDisplay:10.37 W/m2 CLR
09:50 23.7 °C 20.8 °C 1022.9 hPa Calm   1.6 km/h 84% 0 mm WeatherDisplay:10.37 W/m2 CLR
10:00 24 °C 20.7 °C 1022.9 hPa Calm   1.6 km/h 82% 0 mm WeatherDisplay:10.37 W/m2 CLR
10:20 24.6 °C 21.2 °C 1022.9 hPa Calm   1.6 km/h 81% 0 mm WeatherDisplay:10.37 W/m2 CLR
10:30 25.1 °C 21 °C 1022.9 hPa Calm   1.6 km/h 78% 0 mm WeatherDisplay:10.37 W/m2 CLR
10:40 25.4 °C 21.3 °C 1022.9 hPa Calm   1.6 km/h 78% 0 mm WeatherDisplay:10.37 W/m2 CLR
10:50 25.7 °C 21.6 °C 1022.6 hPa Calm   1.6 km/h 78% 0 mm WeatherDisplay:10.37 W/m2 CLR
11:00 25.9 °C 21.4 °C 1022.6 hPa Calm   3.2 km/h 76% 0 mm WeatherDisplay:10.37 W/m2 CLR
11:10 26 °C 21.2 °C 1022.6 hPa Calm   3.2 km/h 75% 0 mm WeatherDisplay:10.37 W/m2 CLR
11:20 26.2 °C 21.2 °C 1022.6 hPa Calm   1.6 km/h 74% 0 mm WeatherDisplay:10.37 W/m2 CLR
11:30 26.2 °C 21.2 °C 1022.9 hPa Calm   3.2 km/h 74% 0 mm WeatherDisplay:10.37 W/m2 CLR
11:40 26.4 °C 21.7 °C 1022.9 hPa Calm     75% 0 mm WeatherDisplay:10.37 W/m2 CLR
11:50 26.7 °C 21.3 °C 1022.9 hPa Calm   1.6 km/h 72% 0 mm WeatherDisplay:10.37 W/m2 CLR
12:00 26.6 °C 21.1 °C 1022.9 hPa Calm   1.6 km/h 72% 0 mm WeatherDisplay:10.37 W/m2 CLR
12:10 26.8 °C 21.3 °C 1022.6 hPa Calm   1.6 km/h 72% 0 mm WeatherDisplay:10.37 W/m2 CLR
12:20 26.9 °C 20.7 °C 1022.6 hPa Calm   4.8 km/h 69% 0 mm WeatherDisplay:10.37 W/m2 CLR
12:30 26.9 °C 20.8 °C 1022.6 hPa Calm   1.6 km/h 69% 0 mm WeatherDisplay:10.37 W/m2 CLR
12:40 26.7 °C 20.8 °C 1022.6 hPa Calm     70% 0 mm WeatherDisplay:10.37 W/m2 CLR
12:50 26.9 °C 20.9 °C 1022.6 hPa Calm   3.2 km/h 70% 0 mm WeatherDisplay:10.37 W/m2 CLR
13:00 27.6 °C 20.7 °C 1022.6 hPa Calm   1.6 km/h 66% 0 mm WeatherDisplay:10.37 W/m2 CLR
13:10 27.8 °C 20.7 °C 1022.6 hPa Calm   1.6 km/h 65% 0 mm WeatherDisplay:10.37 W/m2 CLR
13:20 28.2 °C 20.8 °C 1022.2 hPa Calm   1.6 km/h 64% 0 mm WeatherDisplay:10.37 W/m2 CLR
13:30 28.3 °C 20.6 °C 1022.2 hPa NW 1.6 km/h 3.2 km/h 63% 0 mm WeatherDisplay:10.37 W/m2 CLR
13:40 28.6 °C 21.1 °C 1022.2 hPa Calm   3.2 km/h 64% 0 mm WeatherDisplay:10.37 W/m2 CLR
13:50 28.8 °C 19.7 °C 1022.2 hPa Calm   1.6 km/h 58% 0 mm WeatherDisplay:10.37 W/m2 CLR
14:00 28.9 °C 21.4 °C 1021.9 hPa Calm   1.6 km/h 64% 0 mm WeatherDisplay:10.37 W/m2 CLR
14:10 29.3 °C 20.7 °C 1021.9 hPa Calm   1.6 km/h 60% 0 mm WeatherDisplay:10.37 W/m2 CLR
14:20 29.2 °C 20.6 °C 1021.9 hPa Calm   4.8 km/h 60% 0 mm WeatherDisplay:10.37 W/m2 CLR
14:30 29.4 °C 20.6 °C 1021.6 hPa Calm   3.2 km/h 59% 0 mm WeatherDisplay:10.37 W/m2 CLR
14:40 29.5 °C 21.2 °C 1021.6 hPa Calm   1.6 km/h 61% 0 mm WeatherDisplay:10.37 W/m2 CLR
14:50 29.6 °C 20.7 °C 1021.6 hPa Calm   3.2 km/h 59% 0 mm WeatherDisplay:10.37 W/m2 CLR
15:00 29.4 °C 20.6 °C 1021.6 hPa Calm   4.8 km/h 59% 0 mm WeatherDisplay:10.37 W/m2 CLR
15:10 29.4 °C 20.9 °C 1021.6 hPa Calm   3.2 km/h 60% 0 mm WeatherDisplay:10.37 W/m2 CLR
15:20 29.4 °C 20.8 °C 1021.2 hPa Calm   1.6 km/h 60% 0 mm WeatherDisplay:10.37 W/m2 CLR
15:30 29.1 °C 20.8 °C 1021.2 hPa Calm   1.6 km/h 61% 0 mm WeatherDisplay:10.37 W/m2 CLR
15:40 28.4 °C 19.8 °C 1021.2 hPa Calm   3.2 km/h 60% 0 mm WeatherDisplay:10.37 W/m2 CLR
15:50 28.6 °C 20.3 °C 1020.9 hPa Calm   3.2 km/h 61% 0 mm WeatherDisplay:10.37 W/m2 CLR
16:00 29 °C 20.4 °C 1020.9 hPa Calm   4.8 km/h 60% 0 mm WeatherDisplay:10.37 W/m2 CLR
16:10 29 °C 19.9 °C 1020.9 hPa Calm   3.2 km/h 58% 0 mm WeatherDisplay:10.37 W/m2 CLR
16:20 29.2 °C 20.6 °C 1020.5 hPa Calm   3.2 km/h 60% 0 mm WeatherDisplay:10.37 W/m2 CLR
16:30 29 °C 20.4 °C 1020.5 hPa Calm   4.8 km/h 60% 0 mm WeatherDisplay:10.37 W/m2 CLR
16:40 28.5 °C 20.2 °C 1020.5 hPa Calm   1.6 km/h 61% 0 mm WeatherDisplay:10.37 W/m2 CLR
16:50 29.1 °C 20.5 °C 1020.2 hPa NW 1.6 km/h 8 km/h 60% 0 mm WeatherDisplay:10.37 W/m2 CLR
17:00 29.3 °C 20.4 °C 1020.2 hPa Calm   8 km/h 59% 0 mm WeatherDisplay:10.37 W/m2 CLR
17:10 29.1 °C 20.8 °C 1020.2 hPa Calm   3.2 km/h 61% 0 mm WeatherDisplay:10.37 W/m2 CLR
17:20 29.2 °C 20.6 °C 1020.2 hPa NW 1.6 km/h 3.2 km/h 60% 0 mm WeatherDisplay:10.37 W/m2 CLR
17:30 29.2 °C 20.4 °C 1020.2 hPa Calm   1.6 km/h 59% 0 mm WeatherDisplay:10.37 W/m2 CLR
17:40 29.2 °C 20.6 °C 1020.2 hPa Calm   1.6 km/h 60% 0 mm WeatherDisplay:10.37 W/m2 CLR
18:00 28.9 °C 20.3 °C 1019.9 hPa Calm   3.2 km/h 60% 0 mm WeatherDisplay:10.37 W/m2 CLR
18:10 28.9 °C 20.4 °C 1019.5 hPa Calm   1.6 km/h 60% 0 mm WeatherDisplay:10.37 W/m2 CLR
18:20 28.8 °C 20.2 °C 1019.5 hPa Calm   1.6 km/h 60% 0 mm WeatherDisplay:10.37 W/m2 CLR
18:30 28.7 °C 20.1 °C 1019.5 hPa Calm   3.2 km/h 60% 0 mm WeatherDisplay:10.37 W/m2 CLR
18:40 28.5 °C 20.3 °C 1019.2 hPa Calm   1.6 km/h 61% 0 mm WeatherDisplay:10.37 W/m2 CLR
18:50 28.5 °C 20.5 °C 1019.2 hPa Calm   1.6 km/h 62% 0 mm WeatherDisplay:10.37 W/m2 CLR
19:00 28.4 °C 20.2 °C 1019.5 hPa Calm   1.6 km/h 61% 0 mm WeatherDisplay:10.37 W/m2 CLR
19:10 28.1 °C 19.9 °C 1019.5 hPa Calm   1.6 km/h 61% 0 mm WeatherDisplay:10.37 W/m2 CLR
19:20 27.9 °C 20.5 °C 1019.5 hPa Calm   1.6 km/h 64% 0 mm WeatherDisplay:10.37 W/m2 CLR
19:30 27.7 °C 20.1 °C 1019.2 hPa Calm     63% 0 mm WeatherDisplay:10.37 W/m2 CLR
19:40 27.6 °C 19.9 °C 1019.5 hPa Calm     63% 0 mm WeatherDisplay:10.37 W/m2 CLR
19:50 27.6 °C 20.2 °C 1019.5 hPa Calm   1.6 km/h 64% 0 mm WeatherDisplay:10.37 W/m2 CLR
20:00 27.4 °C 20.3 °C 1019.5 hPa Calm     65% 0 mm WeatherDisplay:10.37 W/m2 CLR
20:10 27.3 °C 20.4 °C 1019.5 hPa Calm   3.2 km/h 66% 0 mm WeatherDisplay:10.37 W/m2 CLR
20:20 27.3 °C 20.1 °C 1019.9 hPa Calm   3.2 km/h 65% 0 mm WeatherDisplay:10.37 W/m2 CLR
20:30 27.2 °C 20 °C 1019.9 hPa Calm     65% 0 mm WeatherDisplay:10.37 W/m2 CLR
20:40 27.1 °C 20.2 °C 1019.9 hPa Calm     66% 0 mm WeatherDisplay:10.37 W/m2 CLR
20:50 26.9 °C 20.1 °C 1019.9 hPa Calm     66% 0 mm WeatherDisplay:10.37 W/m2 CLR
21:00 26.8 °C 20.2 °C 1019.9 hPa Calm   1.6 km/h 67% 0 mm WeatherDisplay:10.37 W/m2 CLR
21:10 26.8 °C 20.2 °C 1020.2 hPa Calm     67% 0 mm WeatherDisplay:10.37 W/m2 CLR
21:20 26.8 °C 20.2 °C 1020.2 hPa Calm   1.6 km/h 67% 0 mm WeatherDisplay:10.37 W/m2 CLR
21:30 26.7 °C 20.3 °C 1020.5 hPa Calm     68% 0 mm WeatherDisplay:10.37 W/m2 CLR
21:40 26.5 °C 20.1 °C 1020.5 hPa Calm   1.6 km/h 68% 0 mm WeatherDisplay:10.37 W/m2 CLR
21:50 26.2 °C 19.8 °C 1020.5 hPa Calm     68% 0 mm WeatherDisplay:10.37 W/m2 CLR
22:00 25.9 °C 19.6 °C 1020.9 hPa Calm     68% 0 mm WeatherDisplay:10.37 W/m2 CLR
22:10 25.7 °C 19.6 °C 1020.9 hPa Calm     69% 0 mm WeatherDisplay:10.37 W/m2 CLR
22:20 25.4 °C 19.6 °C 1021.2 hPa Calm     70% 0 mm WeatherDisplay:10.37 W/m2 CLR
22:30 25.4 °C 19.7 °C 1021.2 hPa Calm     71% 0 mm WeatherDisplay:10.37 W/m2 CLR
22:40 25.3 °C 19.7 °C 1021.2 hPa Calm   1.6 km/h 71% 0 mm WeatherDisplay:10.37 W/m2 CLR
22:50 25.3 °C 19.8 °C 1021.2 hPa Calm     72% 0 mm WeatherDisplay:10.37 W/m2 CLR
23:00 25.1 °C 19.9 °C 1021.6 hPa Calm     73% 0 mm WeatherDisplay:10.37 W/m2 CLR
23:10 24.9 °C 19.9 °C 1021.6 hPa Calm     74% 0 mm WeatherDisplay:10.37 W/m2 CLR
23:20 25 °C 20.3 °C 1021.2 hPa Calm   1.6 km/h 75% 0 mm WeatherDisplay:10.37 W/m2 CLR
23:30 24.9 °C 20.2 °C 1021.2 hPa Calm   1.6 km/h 75% 0 mm WeatherDisplay:10.37 W/m2 CLR
23:40 24.9 °C 20.4 °C 1021.2 hPa Calm   1.6 km/h 76% 0 mm WeatherDisplay:10.37 W/m2 CLR
23:50 24.8 °C 20.3 °C 1021.2 hPa Calm   1.6 km/h 76% 0 mm WeatherDisplay:10.37 W/m2 CLR
Piedmont Bend
Compliments of Weather Underground - 4 mb